createdAt,value
2018-06-03T04:27:31.936Z,99.8
2018-06-03T04:27:52.187Z,100
2018-06-03T04:28:12.865Z,100
2018-06-03T04:28:33.245Z,99.9
2018-06-03T04:28:54.070Z,99.9
2018-06-03T04:29:14.912Z,99.9
2018-06-03T04:29:35.044Z,99.8
2018-06-03T04:29:55.242Z,100
2018-06-03T04:30:15.487Z,100
2018-06-03T04:40:10.345Z,99.7
2018-06-03T04:40:30.597Z,99.9
2018-06-03T04:40:50.762Z,99.9
2018-06-03T04:41:10.918Z,99.9
2018-06-03T04:41:31.880Z,99.9
2018-06-03T04:41:52.019Z,99.7
2018-06-03T04:42:12.192Z,100
2018-06-03T04:42:32.372Z,99.9
2018-06-03T04:42:52.514Z,99.8
2018-06-03T04:44:24.144Z,99.6
2018-06-03T04:44:44.274Z,99.9
2018-06-03T04:45:04.457Z,100
2018-06-03T04:45:24.605Z,99.8
2018-06-03T04:45:44.766Z,99.6
2018-06-03T04:46:06.248Z,99.8
2018-06-03T04:46:26.994Z,100
2018-06-03T04:46:47.182Z,99.9
2018-06-03T04:47:07.343Z,99.9
2018-06-03T04:47:27.526Z,100
2018-06-03T04:47:48.928Z,99.6
2018-06-03T04:48:09.075Z,99.8
2018-06-03T04:48:29.265Z,99.5
2018-06-03T04:48:49.995Z,99.8
2018-06-03T04:49:10.217Z,99.9
2018-06-03T04:49:31.342Z,99.9
2018-06-03T04:49:51.493Z,99.2
2018-06-03T04:50:11.695Z,99.5
2018-06-03T04:50:32.321Z,99.3
2018-06-03T04:50:52.473Z,99.2
2018-06-03T04:51:12.631Z,98.8
2018-06-03T04:51:32.795Z,99.7
2018-06-03T04:51:52.999Z,99.9
2018-06-03T04:52:13.813Z,99.2
2018-06-03T04:52:34.497Z,99.5
2018-06-03T04:52:54.670Z,99.5
2018-06-03T04:53:14.843Z,99.2
2018-06-03T04:53:35.022Z,99.2
2018-06-03T04:53:55.760Z,99
2018-06-03T04:54:16.718Z,98.9
2018-06-03T04:54:36.892Z,99
2018-06-03T04:54:57.085Z,98.8
2018-06-03T04:55:18.335Z,98.8
2018-06-03T04:55:39.021Z,99.4
2018-06-03T04:56:00.001Z,99.3
2018-06-03T04:56:20.178Z,99.6
2018-06-03T04:56:40.383Z,99
2018-06-03T04:57:00.592Z,99.1
2018-06-03T04:57:20.738Z,99.6
2018-06-03T04:57:40.921Z,99.2
2018-06-03T04:58:01.074Z,99
2018-06-03T04:58:21.235Z,98.7
2018-06-03T04:58:41.406Z,99
2018-06-03T04:59:01.580Z,98.6
2018-06-03T04:59:21.759Z,98.8
2018-06-03T04:59:41.957Z,98.5
2018-06-03T05:00:03.388Z,98.8
2018-06-03T05:00:23.571Z,98.5
2018-06-03T05:00:43.788Z,98.1
2018-06-03T05:01:03.954Z,98.7
2018-06-03T05:01:24.099Z,98.4
2018-06-03T05:01:45.034Z,99
2018-06-03T05:02:05.232Z,98.6
2018-06-03T05:02:25.391Z,98.4
2018-06-03T05:02:45.559Z,98.1
2018-06-03T05:03:05.762Z,98.6
2018-06-03T05:03:25.959Z,98.1
2018-06-03T05:03:46.159Z,98.3
2018-06-03T05:04:06.301Z,97.9
2018-06-03T05:04:26.439Z,98
2018-06-03T05:04:46.652Z,97.9
2018-06-03T05:05:07.456Z,98.3
2018-06-03T05:05:27.619Z,98.3
2018-06-03T05:05:48.478Z,97.9
2018-06-03T05:06:08.649Z,97.9
2018-06-03T05:06:29.349Z,97.9
2018-06-03T05:06:49.642Z,98.3
2018-06-03T05:07:10.510Z,98.1
2018-06-03T05:07:30.666Z,98
2018-06-03T05:07:50.863Z,97.9
2018-06-03T05:08:11.876Z,97.7
2018-06-03T05:08:32.060Z,97.8
2018-06-03T05:08:53.030Z,97.9
2018-06-03T05:09:13.191Z,97.4
2018-06-03T05:09:34.029Z,97
2018-06-03T05:09:55.531Z,97.2
2018-06-03T05:10:15.697Z,97
2018-06-03T05:10:35.885Z,97.2
2018-06-03T05:10:56.057Z,97.7
2018-06-03T05:11:16.229Z,97.5
2018-06-03T05:11:36.373Z,97.2
2018-06-03T05:11:57.499Z,97.1
2018-06-03T05:12:18.295Z,97.2
2018-06-03T05:12:38.477Z,97.3
2018-06-03T05:12:58.637Z,97.4
2018-06-03T05:13:18.789Z,97.2
2018-06-03T05:13:38.946Z,97.2
2018-06-03T05:13:59.936Z,96.9
2018-06-03T05:14:21.017Z,97.2
2018-06-03T05:14:41.178Z,96.9
2018-06-03T05:15:01.340Z,97.1
2018-06-03T05:15:21.524Z,97.4
2018-06-03T05:15:41.708Z,97.3
2018-06-03T05:16:02.838Z,97.5
2018-06-03T05:16:23.068Z,96.4
2018-06-03T05:16:43.244Z,96.9
2018-06-03T05:17:03.432Z,97.6
2018-06-03T05:17:24.533Z,97.2
2018-06-03T05:17:49.036Z,96.9
2018-06-03T05:18:10.040Z,97.2
2018-06-03T05:18:30.889Z,97.2
2018-06-03T05:18:51.069Z,97
2018-06-03T05:19:11.273Z,97.1
2018-06-03T05:19:33.732Z,97.5
2018-06-03T05:19:53.932Z,97.6
2018-06-03T05:20:14.101Z,98
2018-06-03T05:20:34.268Z,97.9
2018-06-03T05:20:55.504Z,97.6
2018-06-03T05:21:15.646Z,96.9
2018-06-03T05:21:36.400Z,96.9
2018-06-03T05:21:56.567Z,97.1
2018-06-03T05:22:16.795Z,96.4
2018-06-03T05:22:37.053Z,96.8
2018-06-03T05:22:57.871Z,97.1
2018-06-03T05:23:18.043Z,97.6
2018-06-03T05:23:38.403Z,97.5
2018-06-03T05:23:59.220Z,97.7
2018-06-03T05:24:19.372Z,98
2018-06-03T05:24:40.019Z,97.4
2018-06-03T05:25:00.213Z,97.3
2018-06-03T05:25:20.397Z,97.4
2018-06-03T05:25:42.099Z,96.9
2018-06-03T05:26:02.347Z,97.2
2018-06-03T05:26:22.501Z,97.3
2018-06-03T05:26:42.712Z,96.6
2018-06-03T05:27:02.894Z,97.3
2018-06-03T05:27:23.917Z,96.6
2018-06-03T05:27:44.141Z,97.3
2018-06-03T05:28:04.854Z,97.4
2018-06-03T05:28:25.777Z,96.6
2018-06-03T05:28:45.950Z,96.4
2018-06-03T05:29:07.875Z,97.1
2018-06-03T05:29:28.047Z,97
2018-06-03T05:29:48.207Z,96.7
2018-06-03T05:30:08.366Z,96.8
2018-06-03T05:30:28.539Z,96.4
2018-06-03T05:30:49.369Z,96.4
2018-06-03T05:31:09.566Z,96.6
2018-06-03T05:31:30.494Z,96.9
2018-06-03T05:31:51.249Z,96.8
2018-06-03T05:32:12.461Z,96.6
2018-06-03T05:32:32.715Z,96.7
2018-06-03T05:32:52.943Z,96.7
2018-06-03T05:33:14.044Z,97
2018-06-03T05:33:34.213Z,97.4
2018-06-03T05:33:54.379Z,97.2
2018-06-03T05:34:14.510Z,96.4
2018-06-03T05:34:34.691Z,97
2018-06-03T05:34:55.357Z,96.4
2018-06-03T05:35:15.599Z,96.4
2018-06-03T05:35:35.770Z,96.8
2018-06-03T05:35:55.942Z,96.6
2018-06-03T05:36:16.202Z,96.4
2018-06-03T05:36:37.017Z,96.5
2018-06-03T05:36:57.193Z,96.8
2018-06-03T05:37:17.375Z,96.7
2018-06-03T05:37:37.531Z,96.3
2018-06-03T05:37:57.651Z,96.5
2018-06-03T05:38:18.454Z,96.3
2018-06-03T05:38:39.913Z,96.2
2018-06-03T05:39:00.967Z,95.9
2018-06-03T05:39:21.144Z,95.8
2018-06-03T05:39:41.268Z,96.4
2018-06-03T05:40:02.871Z,96.5
2018-06-03T05:40:23.021Z,96.6
2018-06-03T05:40:44.060Z,96.7
2018-06-03T05:41:04.240Z,96.7
2018-06-03T05:41:24.423Z,96.6
2018-06-03T05:41:44.605Z,97.1
2018-06-03T05:42:04.779Z,97.1
2018-06-03T05:42:24.992Z,96.5
2018-06-03T05:42:45.120Z,96.7
2018-06-03T05:43:05.346Z,97
2018-06-03T05:43:25.514Z,96.9
2018-06-03T05:43:45.681Z,96.7
2018-06-03T05:44:05.850Z,96.6
2018-06-03T05:44:26.524Z,96.2
2018-06-03T05:44:46.669Z,96.7
2018-06-03T05:45:06.829Z,97.3
2018-06-03T05:45:27.874Z,96.6
2018-06-03T05:45:48.039Z,96.7
2018-06-03T05:46:08.226Z,97.3
2018-06-03T05:46:29.527Z,96.4
2018-06-03T05:46:49.704Z,96.6
2018-06-03T05:47:09.883Z,96.6
2018-06-03T05:47:31.530Z,96.2
2018-06-03T05:47:51.692Z,96.5
2018-06-03T05:48:11.883Z,96.3
2018-06-03T05:48:32.881Z,96.7
2018-06-03T05:48:52.998Z,96.5
2018-06-03T05:49:13.854Z,97.3
2018-06-03T05:49:34.564Z,96.4
2018-06-03T05:49:54.784Z,95.7
2018-06-03T05:50:14.955Z,96.2
2018-06-03T05:50:35.086Z,95.9
2018-06-03T05:50:55.254Z,96.3
2018-06-03T05:51:16.975Z,95.6
2018-06-03T05:51:37.972Z,95.7
2018-06-03T05:51:59.053Z,96.2
2018-06-03T05:52:19.225Z,96.4
2018-06-03T05:52:39.418Z,96
2018-06-03T05:52:59.617Z,95.9
2018-06-03T05:53:21.009Z,95.8
2018-06-03T05:53:41.929Z,95.7
2018-06-03T05:54:02.155Z,96.4
2018-06-03T05:54:22.315Z,95.8
2018-06-03T05:54:42.503Z,96.4
2018-06-03T05:55:03.568Z,96.1
2018-06-03T05:55:24.591Z,96
2018-06-03T05:55:44.774Z,96.3
2018-06-03T05:56:05.032Z,96.1
2018-06-03T05:56:25.265Z,96.3
2018-06-03T05:56:45.520Z,95.8
2018-06-03T05:57:05.726Z,95.6
2018-06-03T05:57:26.556Z,94.7
2018-06-03T05:57:46.861Z,95.3
2018-06-03T05:58:07.077Z,95.3
2018-06-03T05:58:27.232Z,95.5
2018-06-03T05:58:48.099Z,95.6
2018-06-03T05:59:08.301Z,95.8
2018-06-03T05:59:28.451Z,95.7
2018-06-03T05:59:48.624Z,95.6
2018-06-03T06:00:08.801Z,95.4
2018-06-03T06:00:30.846Z,95.5
2018-06-03T06:00:51.031Z,95.3
2018-06-03T06:01:11.245Z,95.5
2018-06-03T06:01:31.432Z,95.7
2018-06-03T06:01:51.585Z,96
2018-06-03T06:02:11.817Z,96
2018-06-03T06:02:32.024Z,95.7
2018-06-03T06:02:52.176Z,95.1
2018-06-03T06:03:12.335Z,94.6
2018-06-03T06:03:32.517Z,95.3
2018-06-03T06:03:52.711Z,94.8
2018-06-03T06:04:12.916Z,94.6
2018-06-03T06:04:33.843Z,94.4
2018-06-03T06:04:54.127Z,94.6
2018-06-03T06:05:14.936Z,94.6
2018-06-03T06:05:35.099Z,94.8
2018-06-03T06:05:55.317Z,94.8
2018-06-03T06:06:16.446Z,95.1
2018-06-03T06:06:37.542Z,94.6
2018-06-03T06:06:57.737Z,95.3
2018-06-03T06:07:17.967Z,94.8
2018-06-03T06:07:38.131Z,94.4
2018-06-03T06:07:58.311Z,94.9
2018-06-03T06:08:18.551Z,94.9
2018-06-03T06:08:38.710Z,95.2
2018-06-03T06:08:59.595Z,94.8
2018-06-03T06:09:19.874Z,94.7
2018-06-03T06:09:40.141Z,94.7
2018-06-03T06:10:00.306Z,94.8
2018-06-03T06:10:21.085Z,94.5
2018-06-03T06:10:41.235Z,94.7
2018-06-03T06:11:02.287Z,94.2
2018-06-03T06:11:22.454Z,94.3
2018-06-03T06:11:42.659Z,94.4
2018-06-03T06:12:03.614Z,93.9
2018-06-03T06:12:24.584Z,94
2018-06-03T06:12:44.753Z,94.1
2018-06-03T06:13:04.929Z,94.2
2018-06-03T06:13:25.113Z,94.7
2018-06-03T06:13:45.319Z,94.7
2018-06-03T06:14:05.560Z,94.6
2018-06-03T06:14:25.695Z,94.6
2018-06-03T06:14:45.913Z,95
2018-06-03T06:15:06.115Z,95
2018-06-03T06:15:26.271Z,94.6
2018-06-03T06:15:47.877Z,94.4
2018-06-03T06:16:08.076Z,94.2
2018-06-03T06:16:28.332Z,94.4
2018-06-03T06:16:48.523Z,94.7
2018-06-03T06:17:08.768Z,94.6
2018-06-03T06:17:29.025Z,94.4
2018-06-03T06:17:49.210Z,94.7
2018-06-03T06:18:09.361Z,94.5
2018-06-03T06:18:30.435Z,94.4
2018-06-03T06:18:50.640Z,94.3
2018-06-03T06:19:12.088Z,94.3
2018-06-03T06:19:33.039Z,93.4
2018-06-03T06:19:53.228Z,93.6
2018-06-03T06:20:13.508Z,93.6
2018-06-03T06:20:33.616Z,94.2
2018-06-03T06:20:53.794Z,94.1
2018-06-03T06:21:13.958Z,93.8
2018-06-03T06:21:35.445Z,93
2018-06-03T06:21:56.524Z,93.2
2018-06-03T06:22:16.658Z,92.7
2018-06-03T06:22:36.886Z,92.8
2018-06-03T06:22:57.142Z,93
2018-06-03T06:23:17.357Z,93.1
2018-06-03T06:23:38.485Z,93.7
2018-06-03T06:23:58.622Z,93.4
2018-06-03T06:24:19.887Z,93.4
2018-06-03T06:24:40.588Z,93
2018-06-03T06:25:00.860Z,92.2
2018-06-03T06:25:21.039Z,92.5
2018-06-03T06:25:43.466Z,92.9
2018-06-03T06:26:03.645Z,93.2
2018-06-03T06:26:23.782Z,93.5
2018-06-03T06:26:43.968Z,92.8
2018-06-03T06:27:05.060Z,92.6
2018-06-03T06:27:26.115Z,92.2
2018-06-03T06:27:46.309Z,92.6
2018-06-03T06:28:06.492Z,93.1
2018-06-03T06:28:26.696Z,92.1
2018-06-03T06:28:46.877Z,91.9
2018-06-03T06:29:07.057Z,91.9
2018-06-03T06:29:28.049Z,90.3
2018-06-03T06:29:48.267Z,90.6
2018-06-03T06:30:08.439Z,90.6
2018-06-03T06:30:29.571Z,90.7
2018-06-03T06:30:49.786Z,90.4
2018-06-03T06:31:09.936Z,90.5
2018-06-03T06:31:30.140Z,90.7
2018-06-03T06:31:50.317Z,91
2018-06-03T06:32:10.569Z,91.4
2018-06-03T06:32:31.300Z,90.9
2018-06-03T06:32:51.614Z,90
2018-06-03T06:33:11.758Z,90
2018-06-03T06:33:33.598Z,90.3
2018-06-03T06:33:53.802Z,90.5
2018-06-03T06:34:14.916Z,90.6
2018-06-03T06:34:35.096Z,90.3
2018-06-03T06:34:55.418Z,89.5
2018-06-03T06:35:15.603Z,89.1
2018-06-03T06:35:35.849Z,89.5
2018-06-03T06:35:56.019Z,89.5
2018-06-03T06:36:16.190Z,89.3
2018-06-03T06:36:36.409Z,90.3
2018-06-03T06:36:56.627Z,90.4
2018-06-03T06:37:18.604Z,90.4
2018-06-03T06:37:38.825Z,90.5
2018-06-03T06:37:58.991Z,89.6
2018-06-03T06:38:19.198Z,89.3
2018-06-03T06:38:39.425Z,89.3
2018-06-03T06:38:59.546Z,89.6
2018-06-03T06:39:20.459Z,89.7
2018-06-03T06:39:40.635Z,89.9
2018-06-03T06:40:00.864Z,89.5
2018-06-03T06:40:21.587Z,88.8
2018-06-03T06:40:42.542Z,89.4
2018-06-03T06:41:02.680Z,89.1
2018-06-03T06:41:22.837Z,89.3
2018-06-03T06:41:43.106Z,89.6
2018-06-03T06:42:03.856Z,89.7
2018-06-03T06:42:24.583Z,89.7
2018-06-03T06:42:44.773Z,89.6
2018-06-03T06:43:05.516Z,88.9
2018-06-03T06:43:26.371Z,88.4
2018-06-03T06:43:46.527Z,88.8
2018-06-03T06:44:07.355Z,88.8
2018-06-03T06:44:27.514Z,89.4
2018-06-03T06:44:47.670Z,88.8
2018-06-03T06:45:07.832Z,88.4
2018-06-03T06:45:27.989Z,87.5
2018-06-03T06:45:48.144Z,88.1
2018-06-03T06:46:08.324Z,88.2
2018-06-03T06:46:28.494Z,89.1
2018-06-03T06:46:48.652Z,88.8
2018-06-03T06:47:08.800Z,88.7
2018-06-03T06:47:30.884Z,88.8
2018-06-03T06:47:51.945Z,88.7
2018-06-03T06:48:12.895Z,89.2
2018-06-03T06:48:33.060Z,89.2
2018-06-03T06:48:55.120Z,89.2
2018-06-03T06:49:15.324Z,89.1
2018-06-03T06:49:37.606Z,89.1
2018-06-03T06:49:57.819Z,89.4
2018-06-03T06:50:18.591Z,89.6
2018-06-03T06:50:38.765Z,89.3
2018-06-03T06:50:58.926Z,88.4
2018-06-03T06:51:19.086Z,88.6
2018-06-03T06:51:39.245Z,89
2018-06-03T06:51:59.412Z,89.2
2018-06-03T06:52:19.571Z,89.8
2018-06-03T06:52:39.805Z,90.3
2018-06-03T06:52:59.995Z,89.4
2018-06-03T06:53:20.702Z,90.4
2018-06-03T06:53:40.886Z,90.3
2018-06-03T06:54:01.084Z,90.3
2018-06-03T06:54:21.247Z,90.3
2018-06-03T06:54:42.609Z,90.3
2018-06-03T06:55:02.792Z,90
2018-06-03T06:55:22.948Z,89.5
2018-06-03T06:55:43.109Z,89.5
2018-06-03T06:56:03.294Z,89.4
2018-06-03T06:56:23.457Z,89.1
2018-06-03T06:56:43.675Z,89.5
2018-06-03T06:57:03.836Z,89.5
2018-06-03T06:57:24.076Z,90.5
2018-06-03T06:57:44.234Z,89.4
2018-06-03T06:58:04.409Z,89.6
2018-06-03T06:58:25.124Z,89.7
2018-06-03T06:58:45.820Z,90
2018-06-03T06:59:06.016Z,90.4
2018-06-03T06:59:26.186Z,89.6
2018-06-03T06:59:46.931Z,89.7
2018-06-03T07:00:07.148Z,90.4
2018-06-03T07:00:28.628Z,90.5
2018-06-03T07:00:48.765Z,89.7
2018-06-03T07:01:08.927Z,89.5
2018-06-03T07:01:29.126Z,89.7
2018-06-03T07:01:49.943Z,90.1
2018-06-03T07:02:10.117Z,89.5
2018-06-03T07:02:30.912Z,89.5
2018-06-03T07:02:52.029Z,89.3
2018-06-03T07:03:12.242Z,89.4
2018-06-03T07:03:32.954Z,89.4
2018-06-03T07:03:54.079Z,90.1
2018-06-03T07:04:14.237Z,89.4
2018-06-03T07:04:34.475Z,89.3
2018-06-03T07:04:55.605Z,89.5
2018-06-03T07:05:16.439Z,89.6
2018-06-03T07:05:36.606Z,89.7
2018-06-03T07:05:56.961Z,89.7
2018-06-03T07:06:17.986Z,89.5
2018-06-03T07:06:39.289Z,89.2
2018-06-03T07:06:59.455Z,89.3
2018-06-03T07:07:19.652Z,89.7
2018-06-03T07:07:40.540Z,89.9
2018-06-03T07:08:00.696Z,89.1
2018-06-03T07:08:20.867Z,89.6
2018-06-03T07:08:41.075Z,89.5
2018-06-03T07:09:01.261Z,89.4
2018-06-03T07:09:21.472Z,89.4
2018-06-03T07:09:41.642Z,89.4
2018-06-03T07:10:02.361Z,89.3
2018-06-03T07:10:23.403Z,89.2
2018-06-03T07:10:45.025Z,89.3
2018-06-03T07:11:05.837Z,89.2
2018-06-03T07:11:26.028Z,89.4
2018-06-03T07:11:46.173Z,89.3
2018-06-03T07:12:06.340Z,89.2
2018-06-03T07:12:26.491Z,89.4
2018-06-03T07:12:46.665Z,90.3
2018-06-03T07:13:08.019Z,90
2018-06-03T07:13:30.111Z,90
2018-06-03T07:13:50.270Z,89.9
2018-06-03T07:14:10.429Z,89.8
2018-06-03T07:14:30.624Z,89.6
2018-06-03T07:14:51.630Z,90.3
2018-06-03T07:15:12.463Z,90.8
2018-06-03T07:15:33.639Z,89.8
2018-06-03T07:15:53.765Z,89.3
2018-06-03T07:16:13.952Z,89.7
2018-06-03T07:16:34.126Z,90.3
2018-06-03T07:16:54.295Z,90.2
2018-06-03T07:17:15.005Z,90.3
2018-06-03T07:17:35.187Z,89.9
2018-06-03T07:17:56.633Z,90.1
2018-06-03T07:18:16.783Z,89.8
2018-06-03T07:18:36.939Z,90.3
2018-06-03T07:18:57.183Z,90.1
2018-06-03T07:19:17.345Z,90.2
2018-06-03T07:19:37.535Z,89.8
2018-06-03T07:19:58.383Z,89.4
2018-06-03T07:20:19.147Z,90.2
2018-06-03T07:20:39.286Z,90.1
2018-06-03T07:20:59.458Z,89.6
2018-06-03T07:21:19.625Z,88.8
2018-06-03T07:21:40.624Z,88.6
2018-06-03T07:22:00.861Z,89.2
2018-06-03T07:22:21.030Z,89.1
2018-06-03T07:22:41.303Z,89.4
2018-06-03T07:23:02.152Z,89.7
2018-06-03T07:23:23.021Z,89.3
2018-06-03T07:23:43.113Z,90
2018-06-03T07:24:03.265Z,90.2
2018-06-03T07:24:23.430Z,89.7
2018-06-03T07:24:43.619Z,89.4
2018-06-03T07:25:03.774Z,89.2
2018-06-03T07:25:24.651Z,89.2
2018-06-03T07:25:44.800Z,89.7
2018-06-03T07:26:05.844Z,90.3
2018-06-03T07:26:26.649Z,90.2
2018-06-03T07:26:46.786Z,90.3
2018-06-03T07:27:06.976Z,89.3
2018-06-03T07:27:27.942Z,90.1
2018-06-03T07:27:48.093Z,89.7
2018-06-03T07:28:08.304Z,89.5
2018-06-03T07:28:28.486Z,89.6
2018-06-03T07:28:48.615Z,90.3
2018-06-03T07:29:09.648Z,90.3
2018-06-03T07:29:29.845Z,90.1
2018-06-03T07:29:49.977Z,90.4
2018-06-03T07:30:10.164Z,90.2
2018-06-03T07:30:30.358Z,90.4
2018-06-03T07:30:50.520Z,90.3
2018-06-03T07:31:11.473Z,89.8
2018-06-03T07:31:31.630Z,89.6
2018-06-03T07:31:53.591Z,89.7
2018-06-03T07:32:13.888Z,90.2
2018-06-03T07:32:34.070Z,90.1
2018-06-03T07:32:54.345Z,90.2
2018-06-03T07:33:14.588Z,89.7
2018-06-03T07:33:35.387Z,89.8
2018-06-03T07:33:55.641Z,90.2
2018-06-03T07:34:16.440Z,89.5
2018-06-03T07:34:36.632Z,89.9
2018-06-03T07:34:56.794Z,90.5
2018-06-03T07:35:16.956Z,90.4
2018-06-03T07:35:37.119Z,89.9
2018-06-03T07:35:58.623Z,90.3
2018-06-03T07:36:21.069Z,90.4
2018-06-03T07:36:41.214Z,90.5
2018-06-03T07:37:01.401Z,90.1
2018-06-03T07:37:21.580Z,90.1
2018-06-03T07:37:42.579Z,89.7
2018-06-03T07:38:02.724Z,89.5
2018-06-03T07:38:22.935Z,89.6
2018-06-03T07:38:44.626Z,90.2
2018-06-03T07:39:04.846Z,89.4
2018-06-03T07:39:25.600Z,89.7
2018-06-03T07:39:46.645Z,90.5
2018-06-03T07:40:06.805Z,90.4
2018-06-03T07:40:26.987Z,90.6
2018-06-03T07:40:47.165Z,90.4
2018-06-03T07:41:07.352Z,90
2018-06-03T07:41:27.547Z,90.2
2018-06-03T07:41:47.733Z,90.3
2018-06-03T07:42:08.922Z,90.7
2018-06-03T07:42:29.256Z,90.6
2018-06-03T07:42:49.468Z,90.8
2018-06-03T07:43:09.619Z,90.5
2018-06-03T07:43:29.904Z,90.3
2018-06-03T07:43:50.179Z,90.5
2018-06-03T07:44:10.396Z,90.2
2018-06-03T07:44:31.443Z,89.6
2018-06-03T07:44:52.156Z,89.5
2018-06-03T07:45:12.415Z,89.4
2018-06-03T07:45:33.522Z,89.4
2018-06-03T07:45:53.685Z,89.1
2018-06-03T07:46:14.362Z,89.1
2018-06-03T07:46:34.626Z,89.3
2018-06-03T07:46:55.563Z,88.7
2018-06-03T07:47:15.771Z,88.8
2018-06-03T07:47:36.044Z,88.4
2018-06-03T07:47:56.253Z,88.8
2018-06-03T07:48:18.180Z,89.7
2018-06-03T07:48:38.406Z,89.7
2018-06-03T07:48:58.597Z,89.6
2018-06-03T07:49:18.761Z,89.5
2018-06-03T07:49:39.036Z,89.6
2018-06-03T07:50:00.135Z,90.4
2018-06-03T07:50:20.392Z,90.4
2018-06-03T07:50:40.561Z,89.9
2018-06-03T07:51:00.761Z,89.6
2018-06-03T07:51:20.968Z,89.5
2018-06-03T07:51:41.139Z,89.4
2018-06-03T07:52:02.178Z,90.1
2018-06-03T07:52:22.360Z,89.6
2018-06-03T07:52:42.554Z,89.5
2018-06-03T07:53:03.572Z,89.5
2018-06-03T07:53:23.746Z,89.8
2018-06-03T07:53:43.925Z,89.2
2018-06-03T07:54:04.133Z,88.8
2018-06-03T07:54:25.033Z,89.1
2018-06-03T07:54:45.207Z,89.3
2018-06-03T07:55:05.369Z,89.2
2018-06-03T07:55:27.091Z,88.8
2018-06-03T07:55:47.321Z,89.2
2018-06-03T07:56:07.493Z,89
2018-06-03T07:56:27.864Z,89
2018-06-03T07:56:48.019Z,89
2018-06-03T07:57:09.134Z,89
2018-06-03T07:57:29.387Z,88.5
2018-06-03T07:57:49.595Z,88.9
2018-06-03T07:58:09.760Z,89.3
2018-06-03T07:58:29.971Z,89
2018-06-03T07:58:50.149Z,88.8
2018-06-03T07:59:10.347Z,89
2018-06-03T07:59:30.532Z,89.4
2018-06-03T07:59:50.795Z,89.2
2018-06-03T08:00:12.680Z,89.1
2018-06-03T08:00:32.864Z,89.2
2018-06-03T08:00:53.046Z,89.4
2018-06-03T08:01:14.668Z,89.2
2018-06-03T08:01:35.693Z,89
2018-06-03T08:01:56.553Z,89.3
2018-06-03T08:02:16.722Z,89.5
2018-06-03T08:02:37.522Z,89.1
2018-06-03T08:02:57.724Z,89.5
2018-06-03T08:03:17.972Z,89.5
2018-06-03T08:03:38.261Z,89.4
2018-06-03T08:03:59.044Z,88.8
2018-06-03T08:04:20.184Z,89.3
2018-06-03T08:04:40.440Z,90.2
2018-06-03T08:05:00.634Z,88.8
2018-06-03T08:05:21.557Z,89
2018-06-03T08:05:43.176Z,89.2
2018-06-03T08:06:03.357Z,89.3
2018-06-03T08:06:23.542Z,89.3
2018-06-03T08:06:44.452Z,89.4
2018-06-03T08:07:04.661Z,89.9
2018-06-03T08:07:25.533Z,89.6
2018-06-03T08:07:46.446Z,89.4
2018-06-03T08:08:06.773Z,89.4
2018-06-03T08:08:26.964Z,89.5
2018-06-03T08:08:48.428Z,88.8
2018-06-03T08:09:08.675Z,89.3
2018-06-03T08:09:28.937Z,89.4
2018-06-03T08:09:49.202Z,89.6
2018-06-03T08:10:10.263Z,88.9
2018-06-03T08:10:30.494Z,88.6
2018-06-03T08:10:50.663Z,88.8
2018-06-03T08:11:10.937Z,88.8
2018-06-03T08:11:32.488Z,89.1
2018-06-03T08:11:52.648Z,89.6
2018-06-03T08:12:12.897Z,88.5
2018-06-03T08:12:33.149Z,89.3
2018-06-03T08:12:54.138Z,89.4
2018-06-03T08:13:15.560Z,89.3
2018-06-03T08:13:35.754Z,89.6
2018-06-03T08:13:55.940Z,89.7
2018-06-03T08:14:16.173Z,90.1
2018-06-03T08:14:36.504Z,89.7
2018-06-03T08:14:58.232Z,89.8
2018-06-03T08:15:18.970Z,90.3
2018-06-03T08:15:39.270Z,89.7
2018-06-03T08:15:59.491Z,90.3
2018-06-03T08:16:19.670Z,89.6
2018-06-03T08:16:40.487Z,89.4
2018-06-03T08:17:01.493Z,90.3
2018-06-03T08:17:21.696Z,90.2
2018-06-03T08:17:41.983Z,89.8
2018-06-03T08:18:03.150Z,90.3
2018-06-03T08:18:23.365Z,90.2
2018-06-03T08:18:43.524Z,90.2
2018-06-03T08:19:03.830Z,90.2
2018-06-03T08:19:24.550Z,89.7
2018-06-03T08:19:44.740Z,90.2
2018-06-03T08:20:04.997Z,90.3
2018-06-03T08:20:26.672Z,90.3
2018-06-03T08:20:47.711Z,90.3
2018-06-03T08:21:07.952Z,90.3
2018-06-03T08:21:28.120Z,90.5
2018-06-03T08:21:48.335Z,90
2018-06-03T08:22:08.500Z,90.2
2018-06-03T08:22:28.789Z,90.5
2018-06-03T08:23:45.683Z,89.7
2018-06-03T08:24:05.878Z,90.1
2018-06-03T08:24:26.144Z,90.3
2018-06-03T08:24:46.339Z,90.3
2018-06-03T08:25:06.567Z,90.4
2018-06-03T08:25:26.748Z,90.8
2018-06-03T08:30:41.930Z,90.2
2018-06-03T08:31:02.107Z,90.2
2018-06-03T08:31:22.341Z,90.3
2018-06-03T08:31:42.874Z,90.7
2018-06-03T08:32:18.482Z,90.6
2018-06-03T08:32:39.264Z,90.4
2018-06-03T08:32:59.479Z,90.3
2018-06-03T08:33:20.329Z,90.5
2018-06-03T08:33:40.487Z,90.3
2018-06-03T08:34:00.662Z,90.3
2018-06-03T08:34:20.918Z,91.1
2018-06-03T08:34:41.146Z,91.3
2018-06-03T08:35:01.338Z,91.5
2018-06-03T08:35:21.524Z,91.1
2018-06-03T08:35:41.733Z,91.4
2018-06-03T08:36:01.942Z,91.1
2018-06-03T08:36:24.396Z,90.5
2018-06-03T08:36:44.593Z,91.1
2018-06-03T08:37:04.767Z,91.6
2018-06-03T08:37:24.972Z,91.4
2018-06-03T08:37:45.142Z,91.2
2018-06-03T08:38:05.326Z,91.3
2018-06-03T08:38:25.466Z,91.1
2018-06-03T08:38:45.650Z,90.9
2018-06-03T08:39:05.851Z,90.3
2018-06-03T08:39:26.735Z,90.5
2018-06-03T08:39:46.920Z,91.4
2018-06-03T08:40:08.177Z,90.7
2018-06-03T08:40:29.286Z,90.3
2018-06-03T08:40:49.468Z,91.3
2018-06-03T08:41:09.640Z,91.3
2018-06-03T08:41:30.375Z,91.3
2018-06-03T08:41:50.553Z,91.4
2018-06-03T08:42:11.566Z,90.8
2018-06-03T08:42:31.711Z,90.4
2018-06-03T08:42:51.986Z,90.6
2018-06-03T08:43:13.654Z,91.1
2018-06-03T08:43:34.383Z,91
2018-06-03T08:43:54.549Z,90.4
2018-06-03T08:44:15.360Z,90.6
2018-06-03T08:44:35.514Z,90.6
2018-06-03T08:44:55.676Z,90.7
2018-06-03T08:45:15.838Z,91.2
2018-06-03T08:45:36.723Z,90.5
2018-06-03T08:45:57.728Z,90.2
2018-06-03T08:46:19.344Z,90.6
2018-06-03T08:46:39.659Z,90.6
2018-06-03T08:46:59.875Z,90
2018-06-03T08:47:20.049Z,90
2018-06-03T08:47:40.229Z,90.2
2018-06-03T08:48:01.213Z,90.3
2018-06-03T08:48:21.450Z,90.3
2018-06-03T08:48:42.207Z,90.4
2018-06-03T08:49:02.446Z,89
2018-06-03T08:49:22.644Z,89.1
2018-06-03T08:49:43.004Z,89.3
2018-06-03T08:50:03.250Z,89.2
2018-06-03T08:50:23.425Z,89.7
2018-06-03T08:50:43.618Z,89.5
2018-06-03T08:51:04.614Z,89.5
2018-06-03T08:51:28.588Z,89.6
2018-06-03T08:51:48.780Z,89.2
2018-06-03T08:52:08.993Z,90
2018-06-03T08:52:29.142Z,89.8
2018-06-03T08:52:49.428Z,89.8
2018-06-03T08:53:09.685Z,89
2018-06-03T08:53:29.840Z,88.8
2018-06-03T08:53:50.049Z,88.8
2018-06-03T08:54:10.293Z,89.1
2018-06-03T08:54:31.227Z,89.3
2018-06-03T08:54:52.379Z,88.8
2018-06-03T08:55:13.074Z,88.9
2018-06-03T08:55:33.281Z,89.3
2018-06-03T08:55:53.445Z,89.7
2018-06-03T08:56:13.605Z,90.1
2018-06-03T08:56:34.362Z,90.3
2018-06-03T08:56:55.847Z,89.6
2018-06-03T08:57:16.084Z,88.6
2018-06-03T08:57:36.867Z,89.2
2018-06-03T08:57:57.017Z,89.1
2018-06-03T08:58:17.835Z,89.4
2018-06-03T08:58:38.011Z,89.7
2018-06-03T08:58:58.183Z,89.8
2018-06-03T08:59:18.950Z,90.4
2018-06-03T08:59:39.130Z,90.4
2018-06-03T08:59:59.311Z,90
2018-06-03T09:00:20.231Z,90.2
2018-06-03T09:00:41.350Z,89.7
2018-06-03T09:01:02.246Z,89.8
2018-06-03T09:01:22.459Z,89.1
2018-06-03T09:01:44.872Z,88.8
2018-06-03T09:02:05.789Z,89.5
2018-06-03T09:02:25.965Z,89.6
2018-06-03T09:02:46.170Z,89.6
2018-06-03T09:03:07.118Z,89.7
2018-06-03T09:03:27.282Z,89.5
2018-06-03T09:03:47.591Z,89.3
2018-06-03T09:04:07.746Z,89.2
2018-06-03T09:04:27.952Z,89.2
2018-06-03T09:04:48.217Z,89.3
2018-06-03T09:05:10.209Z,89.3
2018-06-03T09:05:30.381Z,89.7
2018-06-03T09:05:50.565Z,88.5
2018-06-03T09:06:11.636Z,88.4
2018-06-03T09:06:32.348Z,88.5
2018-06-03T09:06:52.554Z,88
2018-06-03T09:07:13.644Z,86.6
2018-06-03T09:07:33.767Z,86.6
2018-06-03T09:07:54.878Z,87.1
2018-06-03T09:08:15.069Z,87.4
2018-06-03T09:08:35.225Z,87.5
2018-06-03T09:08:55.424Z,87.3
2018-06-03T09:09:15.616Z,87.7
2018-06-03T09:09:36.688Z,88.1
2018-06-03T09:09:56.939Z,88
2018-06-03T09:10:17.803Z,87.6
2018-06-03T09:10:38.014Z,87.7
2018-06-03T09:10:58.162Z,87
2018-06-03T09:11:19.133Z,88.3
2018-06-03T09:11:40.766Z,87.8
2018-06-03T09:12:01.770Z,87.7
2018-06-03T09:12:22.758Z,87.1
2018-06-03T09:12:43.780Z,87
2018-06-03T09:13:04.019Z,87
2018-06-03T09:13:24.291Z,87.4
2018-06-03T09:13:44.452Z,87.1
2018-06-03T09:14:05.798Z,87.7
2018-06-03T09:14:26.058Z,87.8
2018-06-03T09:14:46.316Z,87.8
2018-06-03T09:15:06.461Z,86.8
2018-06-03T09:15:27.587Z,86.9
2018-06-03T09:15:47.752Z,87.8
2018-06-03T09:16:08.832Z,87.3
2018-06-03T09:16:29.886Z,87.5
2018-06-03T09:16:51.345Z,87.6
2018-06-03T09:17:11.526Z,88
2018-06-03T09:17:31.684Z,88
2018-06-03T09:17:52.769Z,87.8
2018-06-03T09:18:12.930Z,87.5